Time,TemperatureF,DewpointF,PressureIn,WindDirection,WindDirectionDegrees,WindSpeedMPH,WindSpeedGustMPH,Humidity,HourlyPrecipIn,Conditions,Clouds,dailyrainin,SoftwareType,DateUTC
2013-02-15 00:02:00,34.0,31.0,29.95,NW,309,1.0,5.0,88,64.84,,,-99.99,,2013-02-15 06:02:00,
2013-02-15 00:11:00,34.0,31.0,29.95,West,264,1.0,5.0,88,64.84,,,-99.99,,2013-02-15 06:11:00,
2013-02-15 00:21:00,34.0,31.0,29.95,West,264,1.0,5.0,88,64.84,,,-99.99,,2013-02-15 06:21:00,
2013-02-15 00:31:00,34.0,31.0,29.95,WNW,298,1.0,5.0,88,64.84,,,-99.99,,2013-02-15 06:31:00,
2013-02-15 00:42:00,34.0,31.0,29.95,WNW,298,1.0,5.0,88,64.84,,,-99.99,,2013-02-15 06:42:00,
2013-02-15 00:52:00,34.0,31.0,29.95,NW,305,2.0,5.0,89,64.84,,,-99.99,,2013-02-15 06:52:00,
2013-02-15 01:01:00,34.0,31.0,29.95,WNW,287,2.0,6.0,90,64.84,,,-99.99,,2013-02-15 07:01:00,
2013-02-15 01:11:00,34.0,31.0,29.95,WNW,287,2.0,6.0,90,64.84,,,-99.99,,2013-02-15 07:11:00,
2013-02-15 01:21:00,34.0,31.0,29.95,West,281,1.0,6.0,90,64.84,,,-99.99,,2013-02-15 07:21:00,
2013-02-15 01:31:00,34.0,31.0,29.95,WNW,284,2.0,7.0,90,64.84,,,-99.99,,2013-02-15 07:31:00,
2013-02-15 01:41:00,34.0,31.0,29.95,WNW,284,2.0,7.0,90,64.84,,,-99.99,,2013-02-15 07:41:00,
2013-02-15 01:52:00,34.0,31.0,29.95,WNW,293,3.0,7.0,90,64.84,,,-99.99,,2013-02-15 07:52:00,
2013-02-15 02:01:00,34.0,32.0,29.95,North,0,0.0,0.0,91,64.84,,,-99.99,,2013-02-15 08:01:00,
2013-02-15 02:11:00,34.0,32.0,29.95,NW,322,1.0,5.0,91,64.84,,,-99.99,,2013-02-15 08:11:00,
2013-02-15 02:21:00,34.0,32.0,29.95,NW,322,1.0,5.0,91,64.84,,,-99.99,,2013-02-15 08:21:00,
2013-02-15 02:31:00,34.0,32.0,29.95,NW,322,0.0,3.0,92,64.84,,,-99.99,,2013-02-15 08:31:00,
2013-02-15 02:41:00,34.0,32.0,29.95,NW,322,0.0,3.0,92,64.84,,,-99.99,,2013-02-15 08:41:00,
2013-02-15 02:52:00,33.0,31.0,29.95,WNW,285,1.0,4.0,92,64.84,,,-99.99,,2013-02-15 08:52:00,
2013-02-15 03:01:00,33.0,31.0,29.95,WNW,288,1.0,5.0,92,64.84,,,-99.99,,2013-02-15 09:01:00,
2013-02-15 03:12:00,33.0,31.0,29.95,WNW,288,1.0,5.0,92,64.84,,,-99.99,,2013-02-15 09:12:00,
2013-02-15 03:21:00,33.0,31.0,29.96,NNW,340,1.0,5.0,92,64.84,,,-99.99,,2013-02-15 09:21:00,
2013-02-15 03:32:00,33.0,31.0,29.96,NW,322,1.0,5.0,93,64.84,,,-99.99,,2013-02-15 09:32:00,
2013-02-15 03:41:00,33.0,31.0,29.96,NW,322,1.0,5.0,93,64.84,,,-99.99,,2013-02-15 09:41:00,
2013-02-15 03:52:00,33.0,31.0,29.96,NNW,345,0.0,3.0,94,64.84,,,-99.99,,2013-02-15 09:52:00,
2013-02-15 04:01:00,33.0,32.0,29.96,NW,318,0.0,4.0,95,64.84,,,-99.99,,2013-02-15 10:01:00,
2013-02-15 04:11:00,33.0,32.0,29.96,NW,318,0.0,4.0,95,64.84,,,-99.99,,2013-02-15 10:11:00,
2013-02-15 04:21:00,32.0,31.0,29.97,NNW,342,1.0,5.0,96,64.84,,,-99.99,,2013-02-15 10:21:00,
2013-02-15 04:31:00,33.0,32.0,29.97,North,356,2.0,8.0,96,64.84,,,-99.99,,2013-02-15 10:31:00,
2013-02-15 04:41:00,33.0,32.0,29.97,North,356,2.0,8.0,96,64.84,,,-99.99,,2013-02-15 10:41:00,
2013-02-15 04:52:00,33.0,32.0,29.98,North,352,1.0,6.0,97,64.84,,,-99.99,,2013-02-15 10:52:00,
2013-02-15 05:01:00,33.0,32.0,29.98,NNE,17,1.0,7.0,97,64.84,,,-99.99,,2013-02-15 11:01:00,
2013-02-15 05:11:00,33.0,32.0,29.98,NNE,17,1.0,7.0,97,64.84,,,-99.99,,2013-02-15 11:11:00,
2013-02-15 05:22:00,33.0,32.0,29.98,NNW,347,1.0,6.0,98,64.84,,,-99.99,,2013-02-15 11:22:00,
2013-02-15 05:31:00,33.0,32.0,29.99,North,356,2.0,7.0,98,64.84,,,-99.99,,2013-02-15 11:31:00,
2013-02-15 05:42:00,33.0,32.0,29.99,North,356,2.0,7.0,98,64.84,,,-99.99,,2013-02-15 11:42:00,
2013-02-15 05:52:00,33.0,32.0,30.00,NNE,15,2.0,8.0,98,64.84,,,-99.99,,2013-02-15 11:52:00,
2013-02-15 06:01:00,33.0,32.0,30.01,North,0,0.0,0.0,97,64.84,,,-99.99,,2013-02-15 12:01:00,
2013-02-15 06:11:00,33.0,32.0,30.01,North,0,0.0,0.0,97,64.84,,,-99.99,,2013-02-15 12:11:00,
2013-02-15 06:21:00,33.0,32.0,30.02,NNE,15,0.0,5.0,97,64.84,,,-99.99,,2013-02-15 12:21:00,
2013-02-15 06:32:00,33.0,32.0,30.03,NNW,338,1.0,7.0,96,64.84,,,-99.99,,2013-02-15 12:32:00,
2013-02-15 06:42:00,33.0,32.0,30.03,NNW,338,1.0,7.0,96,64.84,,,-99.99,,2013-02-15 12:42:00,
2013-02-15 06:52:00,32.0,30.0,30.03,NNW,346,5.0,10.0,94,64.84,,,-99.99,,2013-02-15 12:52:00,
2013-02-15 07:02:00,32.0,31.0,30.04,NNW,346,3.0,8.0,96,64.84,,,-99.99,,2013-02-15 13:02:00,
2013-02-15 07:11:00,32.0,31.0,30.05,NNE,25,4.0,7.0,95,64.84,,,-99.99,,2013-02-15 13:11:00,
2013-02-15 07:21:00,32.0,31.0,30.05,NNE,25,4.0,7.0,95,64.84,,,-99.99,,2013-02-15 13:21:00,
2013-02-15 07:32:00,32.0,30.0,30.06,NNW,335,5.0,10.0,93,64.84,,,-99.99,,2013-02-15 13:32:00,
2013-02-15 07:41:00,32.0,30.0,30.06,NNW,335,5.0,10.0,93,64.84,,,-99.99,,2013-02-15 13:41:00,
2013-02-15 07:52:00,31.0,29.0,30.06,NNE,18,6.0,12.0,91,64.84,,,-99.99,,2013-02-15 13:52:00,
2013-02-15 08:01:00,31.0,28.0,30.06,NNE,13,5.0,11.0,90,64.84,,,-99.99,,2013-02-15 14:01:00,
2013-02-15 08:11:00,31.0,28.0,30.06,NNE,13,5.0,11.0,90,64.84,,,-99.99,,2013-02-15 14:11:00,
2013-02-15 08:21:00,32.0,30.0,30.07,NNW,339,3.0,11.0,91,64.84,,,-99.99,,2013-02-15 14:21:00,
2013-02-15 08:32:00,31.0,28.0,30.07,NNW,329,6.0,14.0,89,64.84,,,-99.99,,2013-02-15 14:32:00,
2013-02-15 08:41:00,31.0,28.0,30.07,NNW,329,6.0,14.0,89,64.84,,,-99.99,,2013-02-15 14:41:00,
2013-02-15 08:52:00,32.0,29.0,30.08,NNE,18,4.0,12.0,88,64.84,,,-99.99,,2013-02-15 14:52:00,
2013-02-15 09:01:00,32.0,29.0,30.08,NNE,15,5.0,10.0,88,64.84,,,-99.99,,2013-02-15 15:01:00,
2013-02-15 09:11:00,32.0,29.0,30.08,NNE,15,5.0,10.0,88,64.84,,,-99.99,,2013-02-15 15:11:00,
2013-02-15 09:21:00,32.0,29.0,30.08,WNW,294,5.0,11.0,88,64.84,,,-99.99,,2013-02-15 15:21:00,
2013-02-15 09:32:00,32.0,29.0,30.09,NNW,335,5.0,14.0,87,64.84,,,-99.99,,2013-02-15 15:32:00,
2013-02-15 09:42:00,32.0,28.0,30.09,NNW,336,6.0,12.0,85,64.84,,,-99.99,,2013-02-15 15:42:00,
2013-02-15 09:52:00,32.0,28.0,30.09,NNW,336,6.0,12.0,85,64.84,,,-99.99,,2013-02-15 15:52:00,
2013-02-15 10:01:00,32.0,28.0,30.09,North,353,4.0,13.0,84,64.84,,,-99.99,,2013-02-15 16:01:00,
2013-02-15 10:11:00,32.0,28.0,30.09,North,353,4.0,13.0,84,64.84,,,-99.99,,2013-02-15 16:11:00,
2013-02-15 10:22:00,32.0,28.0,30.09,North,11,5.0,13.0,86,64.84,,,-99.99,,2013-02-15 16:22:00,
2013-02-15 10:31:00,32.0,29.0,30.10,North,8,7.0,14.0,87,64.84,,,-99.99,,2013-02-15 16:31:00,
2013-02-15 10:42:00,32.0,29.0,30.10,North,8,7.0,14.0,87,64.84,,,-99.99,,2013-02-15 16:42:00,
2013-02-15 10:52:00,30.0,28.0,30.11,NNW,332,7.0,14.0,91,64.84,,,-99.99,,2013-02-15 16:52:00,
2013-02-15 11:01:00,31.0,28.0,30.11,North,4,6.0,13.0,88,64.84,,,-99.99,,2013-02-15 17:01:00,
2013-02-15 11:11:00,31.0,26.0,30.11,NW,318,8.0,19.0,82,64.84,,,-99.99,,2013-02-15 17:11:00,
2013-02-15 11:21:00,31.0,26.0,30.11,NW,318,8.0,19.0,82,64.84,,,-99.99,,2013-02-15 17:21:00,
2013-02-15 11:32:00,32.0,26.0,30.11,North,10,8.0,15.0,79,64.84,,,-99.99,,2013-02-15 17:32:00,
2013-02-15 11:41:00,32.0,26.0,30.11,North,10,8.0,15.0,79,64.84,,,-99.99,,2013-02-15 17:41:00,
2013-02-15 11:52:00,33.0,26.0,30.11,NNW,332,6.0,11.0,76,64.84,,,-99.99,,2013-02-15 17:52:00,
2013-02-15 12:01:00,32.0,25.0,30.11,North,356,3.0,8.0,74,64.84,,,-99.99,,2013-02-15 18:01:00,
2013-02-15 12:11:00,32.0,25.0,30.11,North,356,3.0,8.0,74,64.84,,,-99.99,,2013-02-15 18:11:00,
2013-02-15 12:21:00,32.0,25.0,30.11,North,11,6.0,12.0,75,64.84,,,-99.99,,2013-02-15 18:21:00,
2013-02-15 12:31:00,31.0,25.0,30.11,NNE,27,6.0,11.0,77,64.84,,,-99.99,,2013-02-15 18:31:00,
2013-02-15 12:41:00,31.0,25.0,30.11,NNE,27,6.0,11.0,77,64.84,,,-99.99,,2013-02-15 18:41:00,
2013-02-15 12:52:00,32.0,24.0,30.11,NNW,340,7.0,14.0,72,64.84,,,-99.99,,2013-02-15 18:52:00,
2013-02-15 13:01:00,33.0,24.0,30.10,NW,305,4.0,10.0,70,64.84,,,-99.99,,2013-02-15 19:01:00,
2013-02-15 13:11:00,33.0,24.0,30.10,NW,305,4.0,10.0,70,64.84,,,-99.99,,2013-02-15 19:11:00,
2013-02-15 13:22:00,34.0,27.0,30.10,NE,39,5.0,11.0,74,64.84,,,-99.99,,2013-02-15 19:22:00,
2013-02-15 13:32:00,32.0,23.0,30.10,NNW,342,6.0,12.0,70,64.84,,,-99.99,,2013-02-15 19:32:00,
2013-02-15 13:41:00,32.0,23.0,30.10,NNW,342,6.0,12.0,70,64.84,,,-99.99,,2013-02-15 19:41:00,
2013-02-15 13:51:00,33.0,23.0,30.10,North,359,4.0,10.0,65,64.84,,,-99.99,,2013-02-15 19:51:00,
2013-02-15 14:01:00,33.0,22.0,30.10,North,357,2.0,9.0,64,64.84,,,-99.99,,2013-02-15 20:01:00,
2013-02-15 14:11:00,33.0,22.0,30.10,North,357,2.0,9.0,64,64.84,,,-99.99,,2013-02-15 20:11:00,
2013-02-15 14:21:00,34.0,20.0,30.09,North,350,5.0,11.0,57,64.84,,,-99.99,,2013-02-15 20:21:00,
2013-02-15 14:32:00,33.0,20.0,30.10,North,356,5.0,12.0,59,64.84,,,-99.99,,2013-02-15 20:32:00,
2013-02-15 14:42:00,33.0,20.0,30.10,North,356,5.0,12.0,59,64.84,,,-99.99,,2013-02-15 20:42:00,
2013-02-15 14:52:00,33.0,19.0,30.10,NNE,13,6.0,12.0,56,64.84,,,-99.99,,2013-02-15 20:52:00,
2013-02-15 15:01:00,34.0,20.0,30.11,North,8,4.0,10.0,57,64.84,,,-99.99,,2013-02-15 21:01:00,
2013-02-15 15:11:00,34.0,20.0,30.11,North,8,4.0,10.0,57,64.84,,,-99.99,,2013-02-15 21:11:00,
2013-02-15 15:21:00,34.0,22.0,30.11,NNW,345,4.0,10.0,60,64.84,,,-99.99,,2013-02-15 21:21:00,
2013-02-15 15:31:00,33.0,20.0,30.11,NNW,339,6.0,11.0,59,64.84,,,-99.99,,2013-02-15 21:31:00,
2013-02-15 15:42:00,33.0,20.0,30.11,NNW,339,6.0,11.0,59,64.84,,,-99.99,,2013-02-15 21:42:00,
2013-02-15 15:52:00,33.0,21.0,30.11,NW,325,5.0,13.0,62,64.84,,,-99.99,,2013-02-15 21:52:00,
2013-02-15 16:02:00,33.0,21.0,30.11,NNW,345,4.0,9.0,61,64.84,,,-99.99,,2013-02-15 22:02:00,
2013-02-15 16:11:00,32.0,19.0,30.12,NNW,339,5.0,11.0,59,64.84,,,-99.99,,2013-02-15 22:11:00,
2013-02-15 16:21:00,32.0,19.0,30.12,NNW,339,5.0,11.0,59,64.84,,,-99.99,,2013-02-15 22:21:00,
2013-02-15 16:31:00,33.0,22.0,30.12,North,359,3.0,8.0,63,64.84,,,-99.99,,2013-02-15 22:31:00,
2013-02-15 16:41:00,33.0,22.0,30.12,North,359,3.0,8.0,63,64.84,,,-99.99,,2013-02-15 22:41:00,
2013-02-15 16:52:00,32.0,19.0,30.13,NNE,24,4.0,10.0,58,64.84,,,-99.99,,2013-02-15 22:52:00,
2013-02-15 17:02:00,32.0,19.0,30.13,NNW,340,5.0,12.0,59,64.84,,,-99.99,,2013-02-15 23:02:00,
2013-02-15 17:11:00,32.0,19.0,30.13,NNW,340,5.0,12.0,59,64.84,,,-99.99,,2013-02-15 23:11:00,
2013-02-15 17:21:00,32.0,20.0,30.13,North,0,3.0,8.0,62,64.84,,,-99.99,,2013-02-15 23:21:00,
2013-02-15 17:31:00,31.0,21.0,30.14,NE,38,2.0,5.0,65,64.84,,,-99.99,,2013-02-15 23:31:00,
2013-02-15 17:42:00,31.0,21.0,30.14,NE,38,2.0,5.0,65,64.84,,,-99.99,,2013-02-15 23:42:00,
2013-02-15 17:52:00,31.0,21.0,30.14,North,357,2.0,8.0,65,64.84,,,-99.99,,2013-02-15 23:52:00,
2013-02-15 18:02:00,30.0,21.0,30.14,North,0,0.0,0.0,69,64.84,,,-99.99,,2013-02-16 00:02:00,
2013-02-15 18:11:00,30.0,21.0,30.14,North,0,0.0,0.0,69,64.84,,,-99.99,,2013-02-16 00:11:00,
2013-02-15 18:21:00,30.0,22.0,30.15,North,0,0.0,0.0,71,64.84,,,-99.99,,2013-02-16 00:21:00,
2013-02-15 18:32:00,29.0,22.0,30.15,North,0,0.0,0.0,74,64.84,,,-99.99,,2013-02-16 00:32:00,
2013-02-15 18:41:00,29.0,22.0,30.15,North,0,0.0,0.0,74,64.84,,,-99.99,,2013-02-16 00:41:00,
2013-02-15 18:52:00,29.0,22.0,30.15,North,0,0.0,0.0,75,64.84,,,-99.99,,2013-02-16 00:52:00,
2013-02-15 19:02:00,28.0,21.0,30.15,North,0,0.0,0.0,76,64.84,,,-99.99,,2013-02-16 01:02:00,
2013-02-15 19:11:00,28.0,21.0,30.15,North,0,0.0,0.0,76,64.84,,,-99.99,,2013-02-16 01:11:00,
2013-02-15 19:21:00,28.0,22.0,30.15,North,0,0.0,0.0,77,64.84,,,-99.99,,2013-02-16 01:21:00,
2013-02-15 19:31:00,27.0,21.0,30.15,North,0,0.0,0.0,78,64.84,,,-99.99,,2013-02-16 01:31:00,
2013-02-15 19:41:00,27.0,21.0,30.15,North,0,0.0,0.0,78,64.84,,,-99.99,,2013-02-16 01:41:00,
2013-02-15 19:52:00,27.0,21.0,30.14,North,0,0.0,0.0,79,64.84,,,-99.99,,2013-02-16 01:52:00,
2013-02-15 20:01:00,27.0,21.0,30.14,North,0,0.0,0.0,79,64.84,,,-99.99,,2013-02-16 02:01:00,
2013-02-15 20:11:00,27.0,22.0,30.14,North,0,0.0,0.0,80,64.84,,,-99.99,,2013-02-16 02:11:00,
2013-02-15 20:21:00,27.0,22.0,30.14,North,0,0.0,0.0,80,64.84,,,-99.99,,2013-02-16 02:21:00,
2013-02-15 20:31:00,27.0,22.0,30.14,North,0,0.0,0.0,80,64.84,,,-99.99,,2013-02-16 02:31:00,
2013-02-15 20:42:00,27.0,22.0,30.14,North,0,0.0,0.0,80,64.84,,,-99.99,,2013-02-16 02:42:00,
2013-02-15 20:52:00,26.0,21.0,30.14,North,0,0.0,0.0,82,64.84,,,-99.99,,2013-02-16 02:52:00,
2013-02-15 21:01:00,26.0,22.0,30.14,North,0,0.0,0.0,84,64.84,,,-99.99,,2013-02-16 03:01:00,
2013-02-15 21:11:00,26.0,22.0,30.14,North,0,0.0,0.0,84,64.84,,,-99.99,,2013-02-16 03:11:00,
2013-02-15 21:21:00,26.0,22.0,30.14,North,0,0.0,0.0,84,64.84,,,-99.99,,2013-02-16 03:21:00,
2013-02-15 21:31:00,26.0,22.0,30.14,North,0,0.0,0.0,83,64.84,,,-99.99,,2013-02-16 03:31:00,
2013-02-15 21:41:00,26.0,22.0,30.14,North,0,0.0,0.0,83,64.84,,,-99.99,,2013-02-16 03:41:00,
2013-02-15 21:52:00,25.0,21.0,30.14,North,0,0.0,0.0,84,64.84,,,-99.99,,2013-02-16 03:52:00,
2013-02-15 22:01:00,25.0,21.0,30.13,North,0,0.0,0.0,85,64.84,,,-99.99,,2013-02-16 04:01:00,
2013-02-15 22:11:00,26.0,22.0,30.13,North,352,0.0,3.0,86,64.84,,,-99.99,,2013-02-16 04:11:00,
2013-02-15 22:21:00,26.0,22.0,30.13,North,352,0.0,3.0,86,64.84,,,-99.99,,2013-02-16 04:21:00,
2013-02-15 22:32:00,26.0,21.0,30.13,North,359,1.0,7.0,82,64.84,,,-99.99,,2013-02-16 04:32:00,
2013-02-15 22:41:00,26.0,21.0,30.13,North,359,1.0,7.0,82,64.84,,,-99.99,,2013-02-16 04:41:00,
2013-02-15 22:52:00,26.0,22.0,30.13,North,0,0.0,0.0,83,64.84,,,-99.99,,2013-02-16 04:52:00,
2013-02-15 23:01:00,26.0,21.0,30.12,NNE,32,1.0,5.0,80,64.84,,,-99.99,,2013-02-16 05:01:00,
2013-02-15 23:12:00,26.0,21.0,30.12,NNE,32,1.0,5.0,80,64.84,,,-99.99,,2013-02-16 05:12:00,
2013-02-15 23:22:00,26.0,21.0,30.11,North,3,2.0,5.0,81,64.84,,,-99.99,,2013-02-16 05:22:00,
2013-02-15 23:32:00,25.0,20.0,30.11,North,359,4.0,9.0,80,64.84,,,-99.99,,2013-02-16 05:32:00,
2013-02-15 23:42:00,25.0,20.0,30.11,North,359,4.0,9.0,80,64.84,,,-99.99,,2013-02-16 05:42:00,
2013-02-15 23:52:00,25.0,19.0,30.11,North,0,5.0,11.0,79,64.84,,,-99.99,,2013-02-16 05:52:00,